Time;durP1;ratioP1;P1;durP2;ratioP2;P2;SDS_P1;SDS_P2;PMS_P1;PMS_P2;Temp;Humidity;BMP_temperature;BMP_pressure;BME280_temperature;BME280_humidity;BME280_pressure;Samples;Min_cycle;Max_cycle;Signal;HPM_P1;HPM_P2
2021/12/20 00:01:19;;;;;;;5.43;2.07;;;2.70;99.90;;;;;;5077407;28;20454;-70
2021/12/20 00:03:46;;;;;;;2.37;1.50;;;2.70;99.90;;;;;;5077333;28;20800;-71
2021/12/20 00:06:17;;;;;;;2.73;1.37;;;2.70;99.90;;;;;;5077476;28;20485;-70
2021/12/20 00:08:44;;;;;;;2.47;1.70;;;2.70;99.90;;;;;;5077512;28;20461;-70
2021/12/20 00:11:10;;;;;;;2.33;1.77;;;2.70;99.90;;;;;;5077416;28;20458;-70
2021/12/20 00:13:37;;;;;;;3.83;1.40;;;2.60;99.90;;;;;;5077350;28;20834;-70
2021/12/20 00:16:04;;;;;;;3.13;1.40;;;2.60;99.90;;;;;;5077066;28;20804;-70
2021/12/20 00:18:31;;;;;;;2.13;1.30;;;2.60;99.90;;;;;;5077310;28;20465;-70
2021/12/20 00:20:58;;;;;;;5.77;2.20;;;2.60;99.90;;;;;;5076531;28;20462;-70
2021/12/20 00:23:28;;;;;;;3.33;1.90;;;2.60;99.90;;;;;;5078173;28;20465;-71
2021/12/20 00:25:56;;;;;;;4.27;2.07;;;2.60;99.90;;;;;;5077265;28;20821;-70
2021/12/20 00:28:23;;;;;;;3.10;1.70;;;2.60;99.90;;;;;;5077478;28;20500;-71
2021/12/20 00:30:50;;;;;;;3.30;2.10;;;2.50;99.90;;;;;;5076976;28;20473;-70
2021/12/20 00:33:19;;;;;;;4.63;2.37;;;2.50;99.90;;;;;;5077632;28;20461;-70
2021/12/20 00:35:47;;;;;;;3.43;1.50;;;2.50;99.90;;;;;;5076827;28;20455;-70
2021/12/20 00:41:00;;;;;;;2.70;1.87;;;2.50;99.90;;;;;;5076616;28;20878;-70
2021/12/20 00:43:27;;;;;;;8.87;1.50;;;2.50;99.90;;;;;;5076326;28;20477;-69
2021/12/20 00:45:55;;;;;;;6.67;2.03;;;2.50;99.90;;;;;;5076089;28;20478;-69
2021/12/20 00:48:24;;;;;;;4.30;1.60;;;2.50;99.90;;;;;;5076521;28;20512;-69
2021/12/20 00:50:51;;;;;;;2.10;1.70;;;2.50;99.90;;;;;;5076227;28;20470;-69
2021/12/20 00:53:20;;;;;;;3.00;1.53;;;2.40;99.90;;;;;;5076267;28;20466;-69
2021/12/20 00:55:47;;;;;;;3.47;2.13;;;2.40;99.90;;;;;;5076263;28;20450;-71
2021/12/20 00:58:16;;;;;;;3.40;1.50;;;2.40;99.90;;;;;;5076270;28;20486;-70
2021/12/20 01:00:46;;;;;;;4.57;1.80;;;2.40;99.90;;;;;;5076066;28;20565;-70
2021/12/20 01:03:15;;;;;;;3.47;1.47;;;2.40;99.90;;;;;;5075924;28;20493;-70
2021/12/20 01:05:43;;;;;;;1.63;1.20;;;2.50;99.90;;;;;;5076279;28;20505;-69
2021/12/20 01:08:10;;;;;;;2.10;1.63;;;2.40;99.90;;;;;;5076105;28;20465;-71
2021/12/20 01:10:40;;;;;;;1.60;1.50;;;2.40;99.90;;;;;;5076017;28;20458;-71
2021/12/20 01:13:07;;;;;;;2.53;1.40;;;2.40;99.90;;;;;;5075885;28;20453;-71
2021/12/20 01:15:40;;;;;;;4.03;1.50;;;2.40;99.90;;;;;;5076745;28;20783;-71
2021/12/20 01:18:08;;;;;;;1.70;1.20;;;2.40;99.90;;;;;;5077283;28;20489;-71
2021/12/20 01:20:41;;;;;;;5.57;1.53;;;2.40;99.90;;;;;;5077129;28;20469;-69
2021/12/20 01:23:09;;;;;;;2.63;1.70;;;2.40;99.90;;;;;;5075662;28;20524;-69
2021/12/20 01:25:36;;;;;;;3.70;2.10;;;2.30;99.90;;;;;;5075271;28;20962;-69
2021/12/20 01:28:03;;;;;;;3.73;1.33;;;2.20;99.90;;;;;;5075666;28;20775;-69
2021/12/20 01:30:30;;;;;;;3.07;1.73;;;2.30;99.90;;;;;;5075459;28;20485;-69
2021/12/20 01:32:58;;;;;;;2.90;1.43;;;2.30;99.90;;;;;;5075419;28;20473;-69
2021/12/20 01:35:26;;;;;;;2.10;1.23;;;2.20;99.90;;;;;;5075569;28;20450;-69
2021/12/20 01:37:55;;;;;;;1.77;1.53;;;2.20;99.90;;;;;;5075483;28;20496;-69
2021/12/20 01:40:23;;;;;;;3.97;2.17;;;2.20;99.90;;;;;;5074809;28;20927;-69
2021/12/20 01:42:54;;;;;;;2.40;1.50;;;2.20;99.90;;;;;;5074905;28;20918;-69
2021/12/20 01:45:23;;;;;;;6.67;1.63;;;2.20;99.90;;;;;;5075134;28;20541;-69
2021/12/20 01:48:00;;;;;;;2.27;1.47;;;2.20;99.90;;;;;;5074988;28;20969;-69
2021/12/20 01:50:41;;;;;;;4.83;1.60;;;2.20;99.90;;;;;;5074905;28;20477;-69
2021/12/20 01:53:08;;;;;;;3.73;1.57;;;2.20;99.90;;;;;;5075782;28;20785;-69
2021/12/20 01:55:37;;;;;;;3.20;1.40;;;2.20;99.90;;;;;;5074832;28;20545;-69
2021/12/20 01:58:04;;;;;;;2.57;1.50;;;2.10;99.90;;;;;;5075333;28;20736;-69
2021/12/20 02:00:31;;;;;;;5.80;1.77;;;2.10;99.90;;;;;;5075086;28;20462;-69
2021/12/20 02:02:59;;;;;;;1.87;1.50;;;2.10;99.90;;;;;;5074517;28;20509;-69
2021/12/20 02:05:46;;;;;;;3.47;1.57;;;2.10;99.90;;;;;;5075017;28;20484;-69
2021/12/20 02:08:18;;;;;;;2.13;1.20;;;2.10;99.90;;;;;;5074965;28;20456;-69
2021/12/20 02:10:46;;;;;;;2.60;1.63;;;2.10;99.90;;;;;;5074752;28;20875;-69
2021/12/20 02:13:13;;;;;;;3.27;1.30;;;2.00;99.90;;;;;;5075078;28;20454;-69
2021/12/20 02:15:40;;;;;;;4.23;1.50;;;2.00;99.90;;;;;;5074632;28;20454;-69
2021/12/20 02:18:07;;;;;;;5.27;1.37;;;2.10;99.90;;;;;;5074410;28;20465;-69
2021/12/20 02:20:36;;;;;;;5.00;1.23;;;2.10;99.90;;;;;;5075000;28;20840;-69
2021/12/20 02:23:04;;;;;;;3.30;1.97;;;2.00;99.90;;;;;;5074763;28;20831;-69
2021/12/20 02:25:32;;;;;;;5.10;1.97;;;2.10;99.90;;;;;;5074526;28;20547;-69
2021/12/20 02:28:03;;;;;;;4.80;1.50;;;2.00;99.90;;;;;;5074653;28;20533;-69
2021/12/20 02:30:48;;;;;;;1.90;1.30;;;2.00;99.90;;;;;;5074706;28;20438;-69
2021/12/20 02:38:46;;;;;;;3.30;1.27;;;1.90;99.90;;;;;;5074429;28;20780;-69
2021/12/20 02:41:15;;;;;;;4.37;1.70;;;1.90;99.90;;;;;;5074627;28;20604;-69
2021/12/20 02:43:43;;;;;;;3.30;1.70;;;1.90;99.90;;;;;;5076238;28;20454;-69
2021/12/20 02:46:30;;;;;;;5.97;1.80;;;1.90;99.90;;;;;;5078836;28;20526;-69
2021/12/20 02:48:57;;;;;;;2.23;1.47;;;1.90;99.90;;;;;;5078791;28;20835;-69
2021/12/20 02:51:27;;;;;;;2.87;1.50;;;1.80;99.90;;;;;;5078438;28;21019;-69
2021/12/20 02:53:55;;;;;;;3.40;1.40;;;1.80;99.90;;;;;;5078676;28;20458;-69
2021/12/20 02:56:22;;;;;;;8.50;2.10;;;1.80;99.90;;;;;;5078300;28;20454;-68
2021/12/20 02:58:49;;;;;;;1.53;1.20;;;1.80;99.90;;;;;;5078802;28;20458;-68
2021/12/20 03:01:16;;;;;;;1.50;1.10;;;1.90;99.90;;;;;;5078443;28;20793;-69
2021/12/20 03:03:44;;;;;;;1.50;1.30;;;1.90;99.90;;;;;;5078494;28;20497;-69
2021/12/20 03:06:12;;;;;;;3.50;1.57;;;1.90;99.90;;;;;;5078544;28;20485;-69
2021/12/20 03:08:45;;;;;;;1.40;1.20;;;1.80;99.90;;;;;;5078548;28;20458;-69
2021/12/20 03:11:12;;;;;;;2.23;1.47;;;1.90;99.90;;;;;;5078782;28;20544;-69
2021/12/20 03:13:38;;;;;;;4.47;1.50;;;1.80;99.90;;;;;;5078228;28;20519;-69
2021/12/20 03:16:11;;;;;;;3.77;1.63;;;1.80;99.90;;;;;;5078228;28;20465;-69
2021/12/20 03:18:38;;;;;;;2.27;1.70;;;1.80;99.90;;;;;;5077723;28;20944;-69
2021/12/20 03:21:07;;;;;;;9.13;1.60;;;1.80;99.90;;;;;;5077954;28;20453;-69
2021/12/20 03:23:34;;;;;;;5.60;1.77;;;1.70;99.90;;;;;;5078136;28;20461;-69
2021/12/20 03:26:03;;;;;;;2.17;1.27;;;1.80;99.90;;;;;;5077925;28;20856;-70
2021/12/20 03:28:29;;;;;;;2.83;1.27;;;1.70;99.90;;;;;;5078187;28;20464;-69
2021/12/20 03:30:56;;;;;;;4.40;1.97;;;1.70;99.90;;;;;;5078415;28;20458;-68
2021/12/20 03:33:23;;;;;;;10.50;1.70;;;1.70;99.90;;;;;;5078104;28;20465;-69
2021/12/20 03:35:50;;;;;;;2.30;1.43;;;1.70;99.90;;;;;;5078085;28;20468;-69
2021/12/20 03:38:16;;;;;;;4.50;1.30;;;1.70;99.90;;;;;;5077691;28;20980;-69
2021/12/20 03:40:43;;;;;;;5.63;1.40;;;1.70;99.90;;;;;;5077846;28;20462;-69
2021/12/20 03:43:12;;;;;;;3.30;1.50;;;1.70;99.90;;;;;;5078118;28;20930;-69
2021/12/20 03:45:41;;;;;;;7.00;1.83;;;1.70;99.90;;;;;;5078337;28;20457;-69
2021/12/20 03:48:08;;;;;;;6.30;1.93;;;1.70;99.90;;;;;;5078496;28;20788;-69
2021/12/20 03:50:35;;;;;;;4.13;1.50;;;1.60;99.90;;;;;;5078813;28;20457;-69
2021/12/20 03:53:02;;;;;;;6.70;1.90;;;1.60;99.90;;;;;;5077741;28;20473;-69
2021/12/20 03:55:28;;;;;;;4.93;2.00;;;1.60;99.90;;;;;;5078573;28;20454;-70
2021/12/20 03:57:55;;;;;;;8.73;1.83;;;1.50;99.90;;;;;;5077694;28;20478;-70
2021/12/20 04:00:23;;;;;;;2.70;1.57;;;1.50;99.90;;;;;;5077744;28;20462;-70
2021/12/20 04:02:51;;;;;;;3.50;1.70;;;1.60;99.90;;;;;;5077780;28;20489;-70
2021/12/20 04:05:18;;;;;;;2.70;1.30;;;1.50;99.90;;;;;;5078210;28;20454;-69
2021/12/20 04:07:45;;;;;;;4.13;1.33;;;1.50;99.90;;;;;;5078043;28;20489;-70
2021/12/20 04:10:12;;;;;;;3.13;1.40;;;1.40;99.90;;;;;;5077607;28;20471;-69
2021/12/20 04:12:38;;;;;;;5.33;1.53;;;1.50;99.90;;;;;;5076752;28;20519;-69
2021/12/20 04:15:06;;;;;;;2.90;1.43;;;1.40;99.90;;;;;;5077261;28;20458;-69
2021/12/20 04:17:34;;;;;;;3.70;1.37;;;1.40;99.90;;;;;;5076757;28;20493;-68
2021/12/20 04:20:01;;;;;;;4.63;1.60;;;1.40;99.90;;;;;;5077210;28;20458;-70
2021/12/20 04:22:28;;;;;;;4.17;1.57;;;1.40;99.90;;;;;;5077019;28;20930;-69
2021/12/20 04:24:55;;;;;;;6.00;1.60;;;1.30;99.90;;;;;;5076976;28;20519;-69
2021/12/20 04:27:21;;;;;;;3.47;1.83;;;1.30;99.90;;;;;;5076852;28;20487;-69
2021/12/20 04:29:49;;;;;;;5.10;1.67;;;1.30;99.90;;;;;;5077172;28;20454;-69
2021/12/20 04:32:16;;;;;;;6.10;1.70;;;1.20;99.90;;;;;;5076848;28;20781;-69
2021/12/20 04:34:44;;;;;;;5.47;1.73;;;1.10;99.90;;;;;;5076906;28;20458;-69
2021/12/20 04:37:10;;;;;;;4.20;1.60;;;1.20;99.90;;;;;;5076771;28;20760;-69
2021/12/20 04:39:37;;;;;;;7.13;1.50;;;1.20;99.90;;;;;;5076704;28;20458;-69
2021/12/20 04:42:04;;;;;;;6.37;1.90;;;1.20;99.90;;;;;;5076598;28;20462;-69
2021/12/20 04:44:31;;;;;;;4.10;1.60;;;1.20;99.90;;;;;;5076943;28;20454;-69
2021/12/20 04:46:58;;;;;;;4.67;1.47;;;1.20;99.90;;;;;;5076634;28;20481;-69
2021/12/20 04:49:25;;;;;;;2.50;1.40;;;1.20;99.90;;;;;;5076049;28;20484;-69
2021/12/20 04:51:55;;;;;;;4.80;1.33;;;1.20;99.90;;;;;;5076353;28;20469;-69
2021/12/20 04:54:22;;;;;;;3.60;1.90;;;1.20;99.90;;;;;;5076363;28;20461;-69
2021/12/20 04:56:53;;;;;;;4.20;1.70;;;1.10;99.90;;;;;;5076433;28;20454;-69
2021/12/20 04:59:19;;;;;;;6.30;1.63;;;1.20;99.90;;;;;;5076141;28;20446;-69
2021/12/20 05:01:46;;;;;;;4.33;1.83;;;1.20;99.90;;;;;;5075815;28;20454;-69
2021/12/20 05:04:14;;;;;;;7.27;1.53;;;1.20;99.90;;;;;;5076167;28;20775;-69
2021/12/20 05:06:41;;;;;;;1.97;1.60;;;1.10;99.90;;;;;;5075702;28;20512;-69
2021/12/20 05:09:09;;;;;;;5.13;1.47;;;1.20;99.90;;;;;;5076261;28;20454;-69
2021/12/20 05:11:36;;;;;;;6.27;1.60;;;1.20;99.90;;;;;;5075906;28;20933;-70
2021/12/20 05:14:03;;;;;;;8.33;1.50;;;1.20;99.90;;;;;;5076546;28;20455;-69
2021/12/20 05:16:30;;;;;;;2.80;1.80;;;1.20;99.90;;;;;;5077196;28;20915;-70
2021/12/20 05:18:57;;;;;;;8.07;1.80;;;1.20;99.90;;;;;;5076956;28;20462;-68
2021/12/20 05:21:23;;;;;;;3.50;1.90;;;1.20;99.90;;;;;;5077396;28;20458;-70
2021/12/20 05:23:51;;;;;;;4.73;2.03;;;1.20;99.90;;;;;;5077757;28;20469;-70
2021/12/20 05:26:19;;;;;;;8.73;1.90;;;1.10;99.90;;;;;;5077832;28;20458;-69
2021/12/20 05:28:46;;;;;;;2.90;2.60;;;1.10;99.90;;;;;;5078190;28;20973;-69
2021/12/20 05:31:13;;;;;;;4.77;1.70;;;1.10;99.90;;;;;;5077526;28;20462;-69
2021/12/20 05:33:40;;;;;;;4.20;1.50;;;1.10;99.90;;;;;;5077312;28;20465;-69
2021/12/20 05:36:07;;;;;;;4.80;1.80;;;1.10;99.90;;;;;;5076216;28;20458;-69
2021/12/20 05:38:33;;;;;;;3.07;1.80;;;1.10;99.90;;;;;;5076591;28;20458;-69
2021/12/20 05:41:00;;;;;;;3.77;1.60;;;1.10;99.90;;;;;;5079460;28;20466;-69
2021/12/20 05:43:28;;;;;;;4.73;2.27;;;1.10;99.90;;;;;;5077014;28;20465;-69
2021/12/20 05:45:55;;;;;;;4.13;2.00;;;1.10;99.90;;;;;;5075562;28;20757;-69
2021/12/20 05:48:21;;;;;;;4.17;2.37;;;1.10;99.90;;;;;;5075343;28;20482;-69
2021/12/20 05:50:48;;;;;;;3.83;2.00;;;1.10;99.90;;;;;;5075456;28;20469;-69
2021/12/20 05:53:15;;;;;;;7.03;2.07;;;1.10;99.90;;;;;;5075487;28;20466;-70
2021/12/20 05:55:42;;;;;;;3.63;2.00;;;1.10;99.90;;;;;;5075184;28;20809;-69
2021/12/20 05:58:08;;;;;;;4.17;2.23;;;1.10;99.90;;;;;;5075198;28;20458;-69
2021/12/20 06:00:36;;;;;;;5.87;1.87;;;1.10;99.90;;;;;;5075537;28;20516;-69
2021/12/20 06:03:03;;;;;;;3.10;1.60;;;1.10;99.90;;;;;;5076508;28;20609;-69
2021/12/20 06:05:30;;;;;;;5.60;2.33;;;1.10;99.90;;;;;;5075749;28;20922;-69
2021/12/20 06:07:57;;;;;;;5.20;1.67;;;1.10;99.90;;;;;;5076350;28;20482;-70
2021/12/20 06:10:24;;;;;;;8.10;2.37;;;1.10;99.90;;;;;;5074820;28;20935;-69
2021/12/20 06:12:51;;;;;;;4.17;2.13;;;1.10;99.90;;;;;;5074967;28;20458;-69
2021/12/20 06:15:18;;;;;;;3.00;1.70;;;1.10;99.90;;;;;;5074919;28;20457;-69
2021/12/20 06:17:46;;;;;;;6.53;2.20;;;1.20;99.90;;;;;;5074069;28;20454;-68
2021/12/20 06:20:14;;;;;;;6.50;1.90;;;1.20;99.90;;;;;;5074711;28;20466;-69
2021/12/20 06:22:42;;;;;;;4.30;2.03;;;1.20;99.90;;;;;;5074967;28;20565;-69
2021/12/20 06:25:09;;;;;;;5.63;2.57;;;1.20;99.90;;;;;;5074398;28;20458;-69
2021/12/20 06:27:36;;;;;;;2.20;1.70;;;1.20;99.90;;;;;;5074504;28;21039;-70
2021/12/20 06:30:04;;;;;;;4.77;2.40;;;1.20;99.90;;;;;;5075101;28;20454;-68
2021/12/20 06:32:31;;;;;;;10.80;2.20;;;1.20;99.90;;;;;;5074915;28;20454;-71
2021/12/20 06:34:59;;;;;;;4.67;2.33;;;1.20;99.90;;;;;;5074629;28;20458;-70
2021/12/20 06:37:26;;;;;;;4.70;2.13;;;1.20;99.90;;;;;;5074621;28;20458;-69
2021/12/20 06:39:52;;;;;;;6.73;2.73;;;1.20;99.90;;;;;;5074317;28;20458;-71
2021/12/20 06:42:19;;;;;;;3.63;1.80;;;1.20;99.90;;;;;;5074628;28;20508;-69
2021/12/20 06:44:46;;;;;;;8.23;2.40;;;1.20;99.90;;;;;;5074440;28;20470;-70
2021/12/20 06:47:13;;;;;;;3.77;1.80;;;1.20;99.90;;;;;;5074394;28;20473;-69
2021/12/20 06:49:39;;;;;;;6.53;2.00;;;1.20;99.90;;;;;;5074662;28;20454;-69
2021/12/20 06:52:08;;;;;;;4.93;2.00;;;1.20;99.90;;;;;;5074091;28;20469;-69
2021/12/20 06:54:34;;;;;;;4.77;2.20;;;1.20;99.90;;;;;;5074850;28;20561;-69
2021/12/20 06:57:01;;;;;;;4.00;2.50;;;1.20;99.90;;;;;;5074030;28;20512;-70
2021/12/20 06:59:28;;;;;;;3.07;2.10;;;1.20;99.90;;;;;;5074616;28;20454;-68
2021/12/20 07:01:55;;;;;;;6.50;1.87;;;1.20;99.90;;;;;;5074433;28;20847;-70
2021/12/20 07:04:23;;;;;;;4.80;2.30;;;1.20;99.90;;;;;;5074312;28;20486;-70
2021/12/20 07:06:50;;;;;;;3.67;2.30;;;1.20;99.90;;;;;;5074086;28;20454;-69
2021/12/20 07:09:18;;;;;;;5.10;1.83;;;1.20;99.90;;;;;;5074365;28;20512;-70
2021/12/20 07:11:45;;;;;;;4.40;1.90;;;1.20;99.90;;;;;;5074104;28;20799;-70
2021/12/20 07:14:12;;;;;;;9.97;1.87;;;1.20;99.90;;;;;;5075129;28;20489;-68
2021/12/20 07:16:40;;;;;;;6.77;2.30;;;1.20;99.90;;;;;;5074179;28;20465;-69
2021/12/20 07:19:08;;;;;;;5.80;2.77;;;1.20;99.90;;;;;;5074515;28;20454;-69
2021/12/20 07:21:35;;;;;;;2.27;2.00;;;1.20;99.90;;;;;;5073970;28;20453;-69
2021/12/20 07:24:01;;;;;;;6.37;2.27;;;1.20;99.90;;;;;;5073422;28;20754;-72
2021/12/20 07:26:30;;;;;;;3.80;2.53;;;1.20;99.90;;;;;;5074016;28;20458;-70
2021/12/20 07:28:57;;;;;;;4.87;2.40;;;1.10;99.90;;;;;;5074358;28;20543;-69
2021/12/20 07:31:24;;;;;;;6.23;2.20;;;1.10;99.90;;;;;;5077390;28;20464;-69
2021/12/20 07:33:51;;;;;;;2.60;1.83;;;1.10;99.90;;;;;;5077883;28;20466;-69
2021/12/20 07:36:20;;;;;;;6.33;2.33;;;1.10;99.90;;;;;;5077879;28;20779;-69
2021/12/20 07:38:47;;;;;;;7.03;2.37;;;1.20;99.90;;;;;;5077565;28;20473;-70
2021/12/20 07:41:13;;;;;;;4.13;2.80;;;1.20;99.90;;;;;;5078032;28;20458;-69
2021/12/20 07:43:41;;;;;;;6.23;2.53;;;1.20;99.90;;;;;;5078413;28;20462;-69
2021/12/20 07:46:08;;;;;;;4.93;2.87;;;1.20;99.90;;;;;;5078574;28;20461;-69
2021/12/20 07:48:35;;;;;;;13.90;2.73;;;1.20;99.90;;;;;;5079235;28;20470;-69
2021/12/20 07:51:03;;;;;;;8.33;2.50;;;1.30;99.90;;;;;;5080889;28;20469;-69
2021/12/20 07:53:30;;;;;;;5.10;2.47;;;1.30;99.90;;;;;;5080132;28;20458;-69
2021/12/20 07:55:56;;;;;;;4.47;3.17;;;1.20;99.90;;;;;;5079466;28;20803;-69
2021/12/20 07:58:23;;;;;;;8.97;3.33;;;1.30;99.90;;;;;;5078959;28;20450;-69
2021/12/20 08:00:52;;;;;;;5.67;2.70;;;1.30;99.90;;;;;;5078339;28;20511;-69
2021/12/20 08:03:18;;;;;;;3.80;2.60;;;1.30;99.90;;;;;;5078876;28;20496;-70
2021/12/20 08:05:46;;;;;;;2.40;2.20;;;1.30;99.90;;;;;;5079638;28;20473;-69
2021/12/20 08:08:13;;;;;;;6.07;2.70;;;1.30;99.90;;;;;;5080066;28;20493;-70
2021/12/20 08:10:40;;;;;;;10.43;3.57;;;1.30;99.90;;;;;;5084789;28;20898;-69
2021/12/20 08:13:07;;;;;;;7.23;2.50;;;1.30;99.90;;;;;;5082793;28;20458;-70
2021/12/20 08:15:33;;;;;;;7.20;2.27;;;1.30;99.90;;;;;;5082703;28;20482;-70
2021/12/20 08:18:02;;;;;;;8.60;2.77;;;1.30;99.90;;;;;;5080723;28;20450;-69
2021/12/20 08:20:28;;;;;;;4.20;2.53;;;1.40;99.90;;;;;;5080629;28;20933;-70
2021/12/20 08:22:55;;;;;;;7.40;3.67;;;1.40;99.90;;;;;;5080526;28;20518;-69
2021/12/20 08:25:22;;;;;;;5.90;3.00;;;1.40;99.90;;;;;;5081743;28;20484;-70
2021/12/20 08:27:51;;;;;;;5.40;3.00;;;1.40;99.90;;;;;;5081102;28;20478;-70
2021/12/20 08:30:21;;;;;;;4.77;2.73;;;1.40;99.90;;;;;;5080366;28;20469;-70
2021/12/20 08:32:47;;;;;;;5.40;2.80;;;1.40;99.90;;;;;;5081459;28;20446;-70
2021/12/20 08:35:16;;;;;;;16.50;3.10;;;1.40;99.90;;;;;;5081045;28;20518;-70
2021/12/20 08:37:44;;;;;;;7.37;2.53;;;1.50;99.90;;;;;;5080147;28;20454;-70
2021/12/20 08:40:13;;;;;;;5.10;2.90;;;1.50;99.90;;;;;;5076649;28;20557;-70
2021/12/20 08:42:40;;;;;;;8.13;2.60;;;1.50;99.90;;;;;;5075952;28;20458;-70
2021/12/20 08:45:08;;;;;;;3.10;2.80;;;1.60;99.90;;;;;;5076440;28;20462;-70
2021/12/20 08:47:36;;;;;;;6.23;2.63;;;1.60;99.90;;;;;;5076233;28;20859;-69
2021/12/20 08:50:07;;;;;;;3.80;2.60;;;1.70;99.90;;;;;;5076358;28;20462;-70
2021/12/20 08:52:35;;;;;;;7.13;2.47;;;1.70;99.90;;;;;;5076325;28;20461;-69
2021/12/20 08:55:01;;;;;;;12.57;3.00;;;1.80;99.90;;;;;;5076130;28;20462;-70
2021/12/20 08:57:28;;;;;;;5.00;2.63;;;1.80;99.90;;;;;;5076021;28;20458;-70
2021/12/20 08:59:55;;;;;;;7.27;3.07;;;1.80;99.90;;;;;;5075853;28;20454;-68
2021/12/20 09:02:21;;;;;;;11.60;3.23;;;1.80;99.90;;;;;;5075608;28;20482;-70
2021/12/20 09:04:48;;;;;;;9.20;2.97;;;1.90;99.90;;;;;;5075861;28;20919;-69
2021/12/20 09:07:16;;;;;;;6.97;3.93;;;1.90;99.90;;;;;;5075791;28;20473;-69
2021/12/20 09:09:47;;;;;;;4.80;3.13;;;2.00;99.90;;;;;;5075883;28;20497;-70
2021/12/20 09:12:14;;;;;;;8.87;2.80;;;2.00;99.90;;;;;;5075324;28;20443;-69
2021/12/20 09:14:42;;;;;;;5.10;2.97;;;2.00;99.90;;;;;;5075581;28;20561;-69
2021/12/20 09:17:09;;;;;;;5.60;2.90;;;2.10;99.90;;;;;;5075600;28;20782;-71
2021/12/20 09:19:36;;;;;;;7.53;2.53;;;2.10;99.90;;;;;;5075471;28;20843;-69
2021/12/20 09:22:05;;;;;;;4.57;2.83;;;2.10;99.90;;;;;;5075502;28;20454;-70
2021/12/20 09:24:33;;;;;;;4.03;2.70;;;2.20;99.90;;;;;;5075479;28;20458;-70
2021/12/20 09:27:03;;;;;;;4.97;2.73;;;2.20;99.90;;;;;;5075705;28;20533;-69
2021/12/20 09:29:31;;;;;;;6.27;3.43;;;2.30;99.90;;;;;;5075124;28;20494;-69
2021/12/20 09:31:58;;;;;;;6.10;2.60;;;2.30;99.90;;;;;;5075483;28;20465;-68
2021/12/20 09:34:25;;;;;;;6.10;2.73;;;2.40;99.90;;;;;;5075284;28;20458;-69
2021/12/20 09:36:53;;;;;;;7.50;2.67;;;2.40;99.90;;;;;;5074661;28;20953;-69
2021/12/20 09:39:21;;;;;;;6.30;2.50;;;2.40;99.90;;;;;;5075097;28;20458;-69
2021/12/20 09:42:00;;;;;;;7.27;2.90;;;2.50;99.90;;;;;;5074652;28;20929;-69
2021/12/20 09:44:28;;;;;;;8.10;1.90;;;2.50;99.90;;;;;;5075142;28;20478;-69
2021/12/20 09:46:56;;;;;;;11.93;2.23;;;2.50;99.90;;;;;;5075267;28;20790;-69
2021/12/20 09:49:23;;;;;;;4.07;2.70;;;2.60;99.90;;;;;;5074944;28;20478;-69
2021/12/20 09:51:51;;;;;;;4.83;2.17;;;2.60;99.90;;;;;;5074958;28;20787;-69
2021/12/20 09:54:17;;;;;;;7.07;3.00;;;2.60;99.90;;;;;;5074853;28;20492;-69
2021/12/20 09:56:44;;;;;;;3.70;2.70;;;2.70;99.90;;;;;;5074809;28;20469;-69
2021/12/20 09:59:18;;;;;;;2.00;1.70;;;2.70;99.90;;;;;;5074702;28;20989;-70
2021/12/20 10:01:48;;;;;;;3.23;2.40;;;2.80;99.90;;;;;;5075127;28;20503;-69
2021/12/20 10:04:15;;;;;;;2.70;1.87;;;2.80;99.90;;;;;;5074957;28;20443;-70
2021/12/20 10:06:42;;;;;;;7.30;2.40;;;2.90;99.90;;;;;;5075050;28;20926;-70
2021/12/20 10:09:13;;;;;;;5.60;2.47;;;2.90;99.90;;;;;;5074728;28;20568;-69
2021/12/20 10:11:40;;;;;;;6.60;2.87;;;3.00;99.90;;;;;;5074392;28;20883;-69
2021/12/20 10:14:09;;;;;;;5.57;2.27;;;3.10;99.90;;;;;;5074891;28;20515;-69
2021/12/20 10:16:37;;;;;;;3.57;2.63;;;3.20;99.90;;;;;;5074965;28;20458;-70
2021/12/20 10:19:09;;;;;;;4.80;2.23;;;3.20;99.90;;;;;;5074750;28;20458;-70
2021/12/20 10:21:40;;;;;;;2.47;1.80;;;3.20;99.90;;;;;;5074811;28;20470;-71
2021/12/20 10:24:08;;;;;;;6.23;2.30;;;3.30;99.90;;;;;;5074436;28;20472;-70
2021/12/20 10:26:42;;;;;;;6.90;2.37;;;3.30;99.90;;;;;;5074673;28;20454;-69
2021/12/20 10:29:19;;;;;;;3.53;1.87;;;3.30;99.90;;;;;;5074491;28;20474;-69
2021/12/20 10:31:47;;;;;;;6.13;2.07;;;3.40;99.90;;;;;;5074739;28;20457;-69
2021/12/20 10:34:18;;;;;;;18.10;2.40;;;3.40;99.90;;;;;;5074176;28;20898;-71
2021/12/20 10:36:53;;;;;;;6.27;2.40;;;3.50;99.90;;;;;;5074464;28;20469;-69
2021/12/20 10:39:33;;;;;;;3.00;2.40;;;3.50;99.90;;;;;;5074619;28;20441;-69
2021/12/20 10:42:14;;;;;;;6.60;3.30;;;3.50;99.90;;;;;;5074091;28;20438;-70
2021/12/20 10:44:41;;;;;;;6.13;2.30;;;3.60;99.90;;;;;;5075931;28;20438;-70
2021/12/20 10:47:08;;;;;;;4.53;2.10;;;3.60;99.90;;;;;;5074463;28;20462;-69
2021/12/20 10:49:38;;;;;;;6.80;2.50;;;3.60;99.90;;;;;;5074276;28;20478;-69
2021/12/20 10:52:06;;;;;;;8.00;2.30;;;3.60;99.90;;;;;;5074545;28;20462;-69
2021/12/20 10:54:43;;;;;;;9.73;2.20;;;3.60;99.90;;;;;;5074561;28;20502;-69
2021/12/20 10:57:10;;;;;;;7.50;2.60;;;3.70;99.90;;;;;;5074269;28;20439;-69
2021/12/20 10:59:38;;;;;;;5.73;2.40;;;3.80;99.90;;;;;;5074392;28;20461;-69
2021/12/20 11:05:21;;;;;;;6.17;2.07;;;3.90;99.90;;;;;;5077219;28;20433;-69
2021/12/20 11:10:46;;;;;;;4.67;1.97;;;3.90;99.90;;;;;;5036261;28;20455;-70
2021/12/20 11:13:16;;;;;;;6.80;2.30;;;3.90;99.90;;;;;;5036251;28;20451;-69
2021/12/20 11:15:43;;;;;;;3.87;2.37;;;3.90;99.90;;;;;;5055315;28;20817;-69
2021/12/20 11:18:15;;;;;;;4.40;2.30;;;3.90;99.90;;;;;;5078025;28;20458;-69
2021/12/20 11:20:43;;;;;;;5.57;2.67;;;4.00;99.90;;;;;;5077872;28;20474;-69
2021/12/20 11:23:12;;;;;;;4.13;2.10;;;4.00;99.90;;;;;;5078111;28;20515;-69
2021/12/20 11:25:39;;;;;;;10.83;2.23;;;4.00;99.90;;;;;;5077758;28;20922;-69
2021/12/20 11:28:06;;;;;;;4.13;2.10;;;4.10;99.90;;;;;;5077932;28;20454;-69
2021/12/20 11:30:33;;;;;;;6.67;2.40;;;4.10;99.90;;;;;;5077904;28;20469;-69
2021/12/20 11:32:59;;;;;;;2.90;1.80;;;4.10;99.90;;;;;;5077958;28;20917;-69
2021/12/20 11:35:28;;;;;;;3.20;2.10;;;4.20;99.90;;;;;;5078186;28;20469;-69
2021/12/20 11:37:56;;;;;;;9.63;2.40;;;4.30;99.90;;;;;;5077510;28;20454;-69
2021/12/20 11:40:23;;;;;;;6.53;2.40;;;4.30;99.90;;;;;;5079355;28;20469;-69
2021/12/20 11:42:51;;;;;;;5.93;2.23;;;4.40;99.90;;;;;;5079284;28;20462;-69
2021/12/20 11:45:18;;;;;;;10.43;2.63;;;4.40;99.90;;;;;;5078584;28;20956;-69
2021/12/20 11:47:51;;;;;;;6.60;2.50;;;4.50;99.90;;;;;;5078387;28;20508;-69
2021/12/20 11:50:20;;;;;;;5.77;2.50;;;4.50;99.90;;;;;;5078460;28;20466;-69
2021/12/20 11:52:49;;;;;;;4.97;2.20;;;4.50;99.90;;;;;;5078340;28;20473;-69
2021/12/20 11:55:20;;;;;;;7.57;2.40;;;4.50;99.90;;;;;;5078808;28;20473;-69
2021/12/20 11:57:47;;;;;;;2.93;2.07;;;4.50;99.90;;;;;;5078475;28;20468;-69
2021/12/20 12:00:33;;;;;;;2.50;1.90;;;4.60;99.90;;;;;;5078192;28;20447;-70
2021/12/20 12:03:05;;;;;;;3.57;2.10;;;4.70;99.90;;;;;;5077867;28;20500;-69
2021/12/20 12:05:41;;;;;;;4.87;2.37;;;4.90;99.90;;;;;;5077148;28;20434;-69
2021/12/20 12:08:29;;;;;;;5.13;2.47;;;5.20;99.90;;;;;;5076729;28;20461;-69
2021/12/20 12:10:59;;;;;;;6.80;2.20;;;5.80;99.90;;;;;;5077018;28;20458;-69
2021/12/20 12:13:28;;;;;;;5.90;2.07;;;6.30;99.90;;;;;;5076666;28;20938;-69
2021/12/20 12:16:01;;;;;;;7.73;1.83;;;6.40;99.90;;;;;;5075785;28;20463;-69
2021/12/20 12:18:47;;;;;;;4.50;2.30;;;6.60;99.90;;;;;;5078266;28;20539;-69
2021/12/20 12:21:39;;;;;;;6.70;2.30;;;7.40;99.90;;;;;;5078269;28;20438;-69
2021/12/20 12:24:08;;;;;;;4.90;2.10;;;7.90;99.90;;;;;;5079861;28;20462;-70
2021/12/20 12:26:38;;;;;;;4.63;2.57;;;8.60;99.90;;;;;;5077831;28;20465;-70
2021/12/20 12:29:05;;;;;;;3.23;2.03;;;9.00;99.90;;;;;;5077586;28;20493;-69
2021/12/20 12:31:56;;;;;;;6.87;2.97;;;9.30;99.90;;;;;;5077111;28;20511;-70
2021/12/20 12:34:24;;;;;;;5.20;2.07;;;9.20;99.90;;;;;;5077506;28;20439;-70
2021/12/20 12:37:20;;;;;;;4.30;2.10;;;8.50;99.90;;;;;;5076764;28;20466;-70
2021/12/20 12:39:47;;;;;;;4.43;2.13;;;7.90;99.90;;;;;;5076832;28;20439;-70
2021/12/20 12:42:15;;;;;;;5.57;2.90;;;7.40;99.90;;;;;;5077533;28;20466;-69
2021/12/20 12:44:51;;;;;;;5.33;3.03;;;6.90;99.90;;;;;;5076851;28;20473;-69
2021/12/20 12:47:34;;;;;;;6.27;2.77;;;6.40;99.90;;;;;;5076757;28;20461;-69
2021/12/20 12:50:01;;;;;;;6.13;2.80;;;6.00;99.90;;;;;;5076075;28;20466;-68
2021/12/20 12:52:48;;;;;;;13.80;3.20;;;6.00;99.90;;;;;;5076263;28;20461;-69
2021/12/20 12:55:29;;;;;;;6.67;2.97;;;6.30;99.90;;;;;;5076270;28;20779;-69
2021/12/20 12:57:58;;;;;;;3.50;2.40;;;7.20;99.90;;;;;;5075905;28;20450;-69
2021/12/20 13:00:32;;;;;;;5.90;2.60;;;8.30;99.90;;;;;;5075961;28;20561;-69
2021/12/20 13:03:10;;;;;;;6.57;2.60;;;9.10;99.90;;;;;;5076804;28;20486;-69
2021/12/20 13:05:37;;;;;;;4.03;1.93;;;9.70;99.90;;;;;;5076577;28;20438;-69
2021/12/20 13:08:04;;;;;;;4.30;2.67;;;9.60;99.90;;;;;;5075968;28;20826;-70
2021/12/20 13:10:36;;;;;;;9.17;2.77;;;9.10;99.90;;;;;;5076708;28;20504;-70
2021/12/20 13:13:08;;;;;;;7.43;2.60;;;8.50;99.90;;;;;;5076615;28;20474;-69
2021/12/20 13:15:40;;;;;;;4.77;2.30;;;8.10;99.90;;;;;;5075954;28;20446;-70
2021/12/20 13:18:14;;;;;;;8.33;2.70;;;7.90;99.90;;;;;;5076033;28;20504;-70
2021/12/20 13:20:49;;;;;;;3.83;2.10;;;7.70;99.90;;;;;;5075784;28;20441;-68